Agurain, Spain

08:19 AM CET 2018 abendua ren 11 an (GMT +0100)
Mendikua | | Change Station

Elev 2135 ft 43.06 °N, 2.59 °W | Updated 15 seconds ago

Partzialki estalia
Partzialki estalia
46 °F
Feels Like 46 °F
N
1.8
Haizea Aldagarria Haizea from MHM
Gusts 2.2 mph

Gaur
High -- | Low -- °F
--% Chance of Precip.
Yesterday
High -- | Low -- °F
Precip. -- in
Presioa 30.24 in
Ikusgaitasuna 6.2 Miliak
Clouds
Izozki haizeak 46 °F
Ihintzaren maila 28 °F
Afoinua 48%
Rainfall 0.00 in
Snow Depth Not available.
8:31 AM 5:35 PM
Waxing Crescent, 14% visible
METAR LELO 110430Z AUTO VRB02KT 9999 NCD 02/M00 Q1024
Presioa 30.24 in
Ikusgaitasuna 6.2 Miliak
Clouds
Izozki haizeak 46 °F
Ihintzaren maila 28 °F
Afoinua 48%
Rainfall 0.00 in
Snow Depth Not available.
8:31 AM 5:35 PM
Waxing Crescent, 14% visible
METAR LELO 110430Z AUTO VRB02KT 9999 NCD 02/M00 Q1024

Get Severe Weather Alerts

Thanks for signing up!

Be on the lookout for a verification email in your inbox.

You'll start receiving the daily forecast at 6 AM.

×

10-Day Weather Forecast

×

Almanac

Astronomy

Dec. 11, 2018 Rise Set
Actual Time
Civil Twilight
Nautical Twilight
Astronomical Twilight
Moon
Length Of Visible Light
Length of Day
Tomorrow will be .
, % of the Moon is Illuminated

Today's Extremes

Country Highs Country Lows

Community

WunderPhotos

Category 6

Welcome to Category 6. This is the collective home for Weather Underground's featured writeups by Dr. Jeff Masters (right), Bob Henson (left), Chris Burt, and other regular contributors.

Nearby

Air Quality

  Air Quality AQ Index Pollutant
Not available.

Snow Depth

Station Depth Elevation

Earthquake Activity

City Distance Mag. Time & Date
Minimum magnitude displayed is 2.5.

Coastal Water Temperatures

Lekua Tenperatura

Stations

Nearby Weather Stations

Station Location Temp Izozki haizeak Ihintzaren maila Afoinua Haizea Precip. Elev Eguneratuta Type